Time;durP1;ratioP1;P1;durP2;ratioP2;P2;SDS_P1;SDS_P2;PMS_P1;PMS_P2;Temp;Humidity;BMP_temperature;BMP_pressure;BME280_temperature;BME280_humidity;BME280_pressure;Samples;Min_cycle;Max_cycle;Signal;HPM_P1;HPM_P2
2023/02/03 00:02:10;;;;;;;11.50;3.60;;;;;;;12.43;60.67;102404.66;4980964;28;113679;-71
2023/02/03 00:04:37;;;;;;;13.32;3.38;;;;;;;12.43;60.92;102407.31;4980866;28;123774;-70
2023/02/03 00:07:04;;;;;;;10.95;3.30;;;;;;;12.40;60.82;102410.94;4974403;28;124233;-71
2023/02/03 00:09:31;;;;;;;11.77;3.45;;;;;;;12.41;60.83;102411.78;4963037;28;115013;-71
2023/02/03 00:11:59;;;;;;;10.88;3.67;;;;;;;12.39;60.69;102397.69;4972854;28;114125;-71
2023/02/03 00:14:26;;;;;;;12.57;3.92;;;;;;;12.39;60.74;102392.38;4976635;28;124743;-70
2023/02/03 00:16:53;;;;;;;12.07;3.95;;;;;;;12.37;60.90;102395.06;4986638;28;123660;-71
2023/02/03 00:19:20;;;;;;;13.00;3.95;;;;;;;12.37;60.93;102394.19;4975369;28;113761;-70
2023/02/03 00:21:47;;;;;;;10.98;3.45;;;;;;;12.37;60.97;102410.13;4975228;28;113504;-71
2023/02/03 00:24:14;;;;;;;17.55;4.38;;;;;;;12.39;60.90;102424.25;4971321;28;124011;-71
2023/02/03 00:26:42;;;;;;;13.63;4.13;;;;;;;12.39;60.96;102418.94;4969237;28;124113;-71
2023/02/03 00:29:09;;;;;;;12.50;4.38;;;;;;;12.39;60.97;102418.94;4969868;28;113303;-71
2023/02/03 00:31:36;;;;;;;10.38;4.45;;;;;;;12.39;61.03;102429.56;4983688;28;113457;-71
2023/02/03 00:34:05;;;;;;;10.25;4.03;;;;;;;12.39;61.04;102424.25;4978493;28;123543;-71
2023/02/03 00:36:32;;;;;;;8.05;3.85;;;;;;;12.39;61.00;102413.63;4962136;28;124119;-71
2023/02/03 00:39:00;;;;;;;14.60;4.07;;;;;;;12.39;60.92;102429.56;4966078;28;113774;-71
2023/02/03 00:41:29;;;;;;;15.45;4.20;;;;;;;12.39;60.86;102434.88;4980954;28;114909;-71
2023/02/03 00:43:57;;;;;;;9.50;3.90;;;;;;;12.39;60.92;102429.56;4962893;28;124552;-71
2023/02/03 00:46:24;;;;;;;14.45;4.00;;;;;;;12.40;61.00;102441.94;4980714;28;123134;-71
2023/02/03 00:48:51;;;;;;;14.93;4.00;;;;;;;12.41;60.98;102438.34;4962626;28;115408;-71
2023/02/03 00:51:18;;;;;;;9.30;3.75;;;;;;;12.40;60.88;102429.53;4979440;28;115053;-71
2023/02/03 00:53:46;;;;;;;9.95;3.85;;;;;;;12.40;60.96;102431.31;4957701;28;124517;-71
2023/02/03 00:56:14;;;;;;;12.55;3.70;;;;;;;12.40;60.96;102439.28;4978987;28;123841;-71
2023/02/03 00:58:41;;;;;;;13.48;3.70;;;;;;;12.41;61.01;102435.69;4962341;28;114313;-71
2023/02/03 01:01:08;;;;;;;12.10;3.88;;;;;;;12.41;60.88;102439.25;4966538;28;113439;-70
2023/02/03 01:03:36;;;;;;;9.82;3.22;;;;;;;12.42;60.93;102440.97;4965079;28;124118;-71
2023/02/03 01:06:18;;;;;;;10.02;3.05;;;;;;;12.44;60.85;102448.91;4972672;28;122950;-71
2023/02/03 01:08:47;;;;;;;9.55;3.15;;;;;;;12.44;60.85;102446.25;4962076;28;113873;-71
2023/02/03 01:11:23;;;;;;;10.60;3.53;;;;;;;12.44;60.82;102448.91;4965199;28;113952;-71
2023/02/03 01:13:52;;;;;;;9.07;2.85;;;;;;;12.45;60.83;102450.66;4979164;28;123576;-71
2023/02/03 01:16:21;;;;;;;8.70;3.03;;;;;;;12.45;60.90;102445.34;4953134;28;123393;-71
2023/02/03 01:18:49;;;;;;;8.90;2.80;;;;;;;12.47;61.06;102454.16;4963957;28;114731;-71
2023/02/03 01:21:25;;;;;;;9.27;2.67;;;;;;;12.48;60.83;102453.22;4986198;28;112948;-71
2023/02/03 01:23:52;;;;;;;6.78;2.70;;;;;;;12.48;60.73;102442.59;4962985;28;124054;-70
2023/02/03 01:26:21;;;;;;;8.40;2.70;;;;;;;12.49;60.75;102447.03;4962760;28;124223;-71
2023/02/03 01:28:57;;;;;;;9.75;2.50;;;;;;;12.48;60.74;102439.94;4961891;28;115109;-71
2023/02/03 01:31:27;;;;;;;10.27;2.50;;;;;;;12.49;60.67;102425.75;4965151;28;112879;-71
2023/02/03 01:33:55;;;;;;;9.25;2.60;;;;;;;12.51;60.86;102429.25;4968630;28;123187;-71
2023/02/03 01:36:27;;;;;;;9.15;2.25;;;;;;;12.52;60.74;102441.59;4973768;28;122946;-71
2023/02/03 01:38:55;;;;;;;9.73;2.38;;;;;;;12.52;60.61;102433.63;4957848;28;114206;-70
2023/02/03 01:41:28;;;;;;;8.27;2.30;;;;;;;12.53;60.55;102432.72;4965404;28;115300;-72
2023/02/03 01:43:57;;;;;;;7.95;2.35;;;;;;;12.54;60.53;102450.41;4971689;28;123321;-70
2023/02/03 01:46:33;;;;;;;14.32;2.55;;;;;;;12.54;60.76;102431.78;4974254;28;123175;-71
2023/02/03 01:49:11;;;;;;;7.47;2.10;;;;;;;12.55;60.44;102430.91;4962045;28;114499;-71
2023/02/03 01:51:40;;;;;;;8.93;2.13;;;;;;;12.56;60.53;102422.00;4970671;28;114265;-71
2023/02/03 01:54:12;;;;;;;9.95;2.15;;;;;;;12.57;60.37;102428.19;4965996;28;124208;-71
2023/02/03 01:56:44;;;;;;;7.80;2.38;;;;;;;12.58;60.45;102421.94;4960724;28;124253;-71
2023/02/03 01:59:14;;;;;;;12.32;2.22;;;;;;;12.57;60.37;102418.44;4962585;28;114608;-71
2023/02/03 02:01:42;;;;;;;11.90;2.50;;;;;;;12.59;60.43;102416.59;4967240;28;115903;-71
2023/02/03 02:04:10;;;;;;;7.80;2.15;;;;;;;12.58;60.24;102414.88;4962326;28;123845;-71
2023/02/03 02:06:37;;;;;;;11.48;2.30;;;;;;;12.58;60.23;102393.59;4962821;28;123479;-71
2023/02/03 02:09:07;;;;;;;7.40;1.80;;;;;;;12.58;60.13;102377.66;4978738;28;114241;-71
2023/02/03 02:11:35;;;;;;;10.30;2.20;;;;;;;12.57;60.13;102380.34;4965802;28;114320;-71
2023/02/03 02:14:02;;;;;;;9.43;1.77;;;;;;;12.57;60.06;102389.19;4958662;28;123395;-71
2023/02/03 02:17:01;;;;;;;7.93;2.08;;;;;;;12.57;60.08;102391.00;4971854;28;123143;-71
2023/02/03 02:19:47;;;;;;;7.40;1.98;;;;;;;12.55;60.05;102382.19;4956329;28;113868;-71
2023/02/03 02:22:32;;;;;;;8.63;2.03;;;;;;;12.54;60.01;102391.94;4955441;28;112890;-71
2023/02/03 02:25:26;;;;;;;10.60;1.88;;;;;;;12.54;60.05;102396.38;4959815;28;124020;-71
2023/02/03 02:28:14;;;;;;;6.90;1.75;;;;;;;12.53;59.98;102390.19;4974665;28;123440;-71
2023/02/03 02:31:00;;;;;;;7.38;1.92;;;;;;;12.53;59.99;102373.41;4973617;28;114550;-71
2023/02/03 02:33:43;;;;;;;7.75;1.73;;;;;;;12.52;59.90;102372.50;4975283;28;117167;-71
2023/02/03 02:36:39;;;;;;;7.13;1.80;;;;;;;12.54;59.97;102383.09;4981957;28;124076;-71
2023/02/03 02:39:20;;;;;;;7.83;1.60;;;;;;;12.54;60.08;102391.94;4975520;28;122244;-71
2023/02/03 02:41:57;;;;;;;6.57;1.65;;;;;;;12.57;59.74;102391.00;4967043;28;114347;-71
2023/02/03 02:44:31;;;;;;;6.90;1.70;;;;;;;12.56;59.70;102374.16;4973923;28;113666;-70
2023/02/03 02:47:05;;;;;;;7.97;1.90;;;;;;;12.57;59.67;102375.91;4961392;28;124344;-71
2023/02/03 02:49:42;;;;;;;9.25;1.95;;;;;;;12.58;59.55;102371.44;4960546;28;123262;-71
2023/02/03 02:52:14;;;;;;;4.18;1.50;;;;;;;12.58;59.56;102372.34;4959047;28;114634;-71
2023/02/03 02:54:46;;;;;;;7.00;1.58;;;;;;;12.60;59.71;102370.50;4969395;28;113490;-71
2023/02/03 02:57:17;;;;;;;6.03;1.60;;;;;;;12.63;59.61;102383.69;4975738;28;123834;-71
2023/02/03 02:59:45;;;;;;;6.78;1.70;;;;;;;12.62;59.46;102384.63;4967630;28;122957;-71
2023/02/03 03:02:13;;;;;;;6.05;1.50;;;;;;;12.62;59.52;102387.28;4979573;28;113689;-71
2023/02/03 03:04:42;;;;;;;7.53;1.80;;;;;;;12.63;59.36;102391.66;4956354;28;114384;-71
2023/02/03 03:07:25;;;;;;;7.28;1.80;;;;;;;12.63;59.40;102390.81;4957904;28;123303;-71
2023/02/03 03:10:01;;;;;;;8.48;1.88;;;;;;;12.64;59.34;102397.88;4960946;28;124112;-71
2023/02/03 03:12:40;;;;;;;6.00;1.55;;;;;;;12.64;59.34;102393.44;4957783;28;114189;-71
2023/02/03 03:15:17;;;;;;;8.00;1.90;;;;;;;12.64;59.07;102382.78;4974154;28;113147;-71
2023/02/03 03:17:50;;;;;;;6.80;1.73;;;;;;;12.65;59.07;102379.19;4972539;28;123215;-71
2023/02/03 03:20:21;;;;;;;9.38;1.35;;;;;;;12.65;59.14;102355.28;4959035;28;123664;-71
2023/02/03 03:22:54;;;;;;;6.25;1.60;;;;;;;12.65;59.18;102347.31;4958971;28;115187;-71
2023/02/03 03:25:33;;;;;;;5.90;1.70;;;;;;;12.65;59.00;102336.66;4963097;28;114787;-71
2023/02/03 03:28:10;;;;;;;10.07;1.60;;;;;;;12.65;59.15;102342.00;4957926;28;123881;-71
2023/02/03 03:30:38;;;;;;;6.00;1.73;;;;;;;12.65;58.86;102347.31;4978717;28;123377;-71
2023/02/03 03:33:06;;;;;;;6.50;1.33;;;;;;;12.65;59.03;102339.31;4954144;28;115025;-71
2023/02/03 03:35:45;;;;;;;7.03;1.63;;;;;;;12.65;58.92;102347.31;4959008;28;113904;-71
2023/02/03 03:38:23;;;;;;;8.63;1.63;;;;;;;12.65;59.00;102352.63;4953492;28;124082;-71
2023/02/03 03:41:00;;;;;;;7.80;1.92;;;;;;;12.68;58.91;102361.41;4975109;28;123384;-71
2023/02/03 03:43:30;;;;;;;6.03;1.55;;;;;;;12.68;59.05;102361.41;4957594;28;114301;-71
2023/02/03 03:46:05;;;;;;;4.10;1.42;;;;;;;12.66;58.87;102365.00;4984489;28;113530;-71
2023/02/03 03:49:06;;;;;;;9.17;2.13;;;;;;;12.66;58.88;102374.78;4961414;28;124489;-71
2023/02/03 03:51:45;;;;;;;7.53;1.67;;;;;;;12.65;59.08;102379.19;4936059;28;122834;-71
2023/02/03 03:54:17;;;;;;;9.05;1.90;;;;;;;12.66;58.99;102367.66;4958362;28;114797;-71
2023/02/03 03:57:22;;;;;;;4.05;1.75;;;;;;;12.66;58.88;102375.63;4955781;28;113522;-71
2023/02/03 03:59:50;;;;;;;7.32;1.65;;;;;;;12.69;58.90;102373.81;4950545;28;123658;-71
2023/02/03 04:02:19;;;;;;;5.53;1.42;;;;;;;12.70;58.75;102370.25;4955807;28;124626;-70
2023/02/03 04:04:47;;;;;;;7.43;2.15;;;;;;;12.71;58.77;102361.34;4961792;28;114589;-70
2023/02/03 04:07:14;;;;;;;7.35;1.60;;;;;;;12.71;58.72;102371.97;4959566;28;114275;-71
2023/02/03 04:09:42;;;;;;;5.93;1.23;;;;;;;12.71;58.64;102387.91;4955353;28;123587;-71
2023/02/03 04:12:20;;;;;;;6.88;1.83;;;;;;;12.71;58.71;102377.28;4961656;28;123736;-71
2023/02/03 04:14:47;;;;;;;5.53;1.50;;;;;;;12.72;58.72;102389.69;4959550;28;115166;-71
2023/02/03 04:17:14;;;;;;;7.15;1.48;;;;;;;12.73;58.55;102396.72;4976040;28;114613;-71
2023/02/03 04:19:41;;;;;;;5.55;1.42;;;;;;;12.73;58.76;102404.69;4975561;28;123346;-71
2023/02/03 04:22:08;;;;;;;7.70;1.67;;;;;;;12.74;58.69;102401.13;4961039;28;123853;-71
2023/02/03 04:24:35;;;;;;;6.75;1.33;;;;;;;12.74;58.55;102393.16;4978967;28;114905;-71
2023/02/03 04:27:03;;;;;;;5.65;1.48;;;;;;;12.74;58.63;102399.34;4964636;28;114054;-71
2023/02/03 04:29:31;;;;;;;7.05;1.48;;;;;;;12.75;58.54;102384.25;4955555;28;125211;-71
2023/02/03 04:31:58;;;;;;;7.20;1.30;;;;;;;12.76;58.51;102391.31;4963206;28;123449;-71
2023/02/03 04:34:25;;;;;;;5.65;1.63;;;;;;;12.78;58.51;102400.13;4959497;28;113411;-71
2023/02/03 04:36:52;;;;;;;4.90;1.42;;;;;;;12.77;58.53;102401.03;4961004;28;113453;-71
2023/02/03 04:39:20;;;;;;;3.58;1.23;;;;;;;12.79;58.70;102396.53;4957954;28;125125;-71
2023/02/03 04:41:47;;;;;;;4.65;1.17;;;;;;;12.80;58.45;102403.59;4960967;28;125022;-71
2023/02/03 04:44:14;;;;;;;7.65;1.30;;;;;;;12.82;58.56;102391.13;4951487;28;113969;-71
2023/02/03 04:46:41;;;;;;;5.68;1.70;;;;;;;12.84;58.48;102390.16;4959847;28;113826;-71
2023/02/03 04:49:10;;;;;;;9.52;1.20;;;;;;;12.85;58.37;102375.97;4962401;28;124108;-70
2023/02/03 04:51:37;;;;;;;3.67;1.15;;;;;;;12.86;58.35;102382.16;4963366;28;125254;-71
2023/02/03 04:54:04;;;;;;;4.43;1.15;;;;;;;12.88;58.32;102364.34;4977969;28;113954;-71
2023/02/03 04:56:31;;;;;;;4.80;1.10;;;;;;;12.89;58.22;102355.47;4960638;28;112873;-71
2023/02/03 04:58:58;;;;;;;6.70;1.20;;;;;;;12.90;58.31;102346.56;4972071;28;124466;-71
2023/02/03 05:01:25;;;;;;;7.45;1.30;;;;;;;12.92;58.21;102344.75;4964905;28;123514;-71
2023/02/03 05:03:52;;;;;;;5.18;1.40;;;;;;;12.93;58.03;102351.81;4963348;28;114908;-71
2023/02/03 05:06:27;;;;;;;6.75;1.35;;;;;;;12.94;58.12;102342.91;4965186;28;115075;-71
2023/02/03 05:08:54;;;;;;;6.20;1.17;;;;;;;12.95;58.00;102349.97;4962346;28;124673;-71
2023/02/03 05:11:22;;;;;;;5.55;1.10;;;;;;;12.97;58.01;102356.09;4957767;28;123951;-71
2023/02/03 05:13:49;;;;;;;5.22;1.35;;;;;;;12.97;57.97;102369.41;4959402;28;114597;-71
2023/02/03 05:16:16;;;;;;;6.55;1.35;;;;;;;12.97;58.00;102358.75;4951802;28;113960;-71
2023/02/03 05:18:43;;;;;;;5.50;1.10;;;;;;;12.97;57.99;102369.41;4956468;28;124184;-70
2023/02/03 05:21:10;;;;;;;5.30;1.20;;;;;;;12.98;57.98;102360.50;4966770;28;124162;-71
2023/02/03 05:23:37;;;;;;;8.50;1.40;;;;;;;12.99;57.95;102362.25;4973529;28;114518;-70
2023/02/03 05:26:05;;;;;;;4.05;1.17;;;;;;;12.99;57.87;102351.59;4955838;28;114280;-71
2023/02/03 05:28:32;;;;;;;7.22;1.30;;;;;;;13.01;58.04;102355.09;4966415;28;124096;-71
2023/02/03 05:31:00;;;;;;;6.60;1.20;;;;;;;13.03;57.81;102374.56;4961241;28;123795;-71
2023/02/03 05:33:28;;;;;;;5.15;1.13;;;;;;;13.04;57.83;102370.97;4961471;28;114171;-71
2023/02/03 05:35:56;;;;;;;6.70;1.42;;;;;;;13.05;57.67;102367.41;4975158;28;113672;-71
2023/02/03 05:38:23;;;;;;;6.43;1.45;;;;;;;13.04;57.77;102370.97;4979852;28;125277;-71
2023/02/03 05:43:37;;;;;;;4.35;1.02;;;;;;;13.07;57.72;102379.75;4973431;28;116091;-71
2023/02/03 05:46:06;;;;;;;5.43;1.10;;;;;;;13.07;57.64;102383.28;4966147;28;112784;-71
2023/02/03 05:48:33;;;;;;;4.57;1.15;;;;;;;13.08;57.76;102376.19;4980072;28;124120;-71
2023/02/03 05:51:00;;;;;;;7.18;1.00;;;;;;;13.08;57.74;102381.50;4976607;28;122810;-71
2023/02/03 05:53:27;;;;;;;5.82;1.60;;;;;;;13.09;57.57;102375.25;4959045;28;115318;-70
2023/02/03 05:55:54;;;;;;;3.13;0.98;;;;;;;13.09;57.45;102383.25;4960403;28;115187;-72
2023/02/03 05:58:21;;;;;;;6.82;1.40;;;;;;;13.08;57.68;102386.84;4982359;28;124007;-70
2023/02/03 06:00:49;;;;;;;5.57;1.40;;;;;;;13.09;57.55;102375.25;4965697;28;124561;-71
2023/02/03 06:03:16;;;;;;;4.63;1.20;;;;;;;13.10;57.46;102379.69;4967438;28;114193;-71
2023/02/03 06:05:43;;;;;;;6.28;1.30;;;;;;;13.10;57.56;102380.53;4960960;28;115581;-71
2023/02/03 06:08:11;;;;;;;4.68;1.20;;;;;;;13.11;57.49;102376.06;4960692;28;123607;-72
2023/02/03 06:10:38;;;;;;;4.63;1.30;;;;;;;13.12;57.45;102372.50;4958808;28;123952;-71
2023/02/03 06:13:14;;;;;;;4.95;1.10;;;;;;;13.11;57.38;102370.75;4964519;28;114845;-71
2023/02/03 06:15:41;;;;;;;5.63;1.30;;;;;;;13.11;57.37;102370.75;4973856;28;113613;-71
2023/02/03 06:18:09;;;;;;;4.80;1.05;;;;;;;13.11;57.23;102373.41;4978834;28;123732;-71
2023/02/03 06:20:36;;;;;;;6.57;1.23;;;;;;;13.10;57.35;102353.06;4965164;28;123665;-72
2023/02/03 06:23:03;;;;;;;4.93;1.23;;;;;;;13.11;57.30;102354.78;4961733;28;114817;-71
2023/02/03 06:25:31;;;;;;;4.85;1.20;;;;;;;13.11;57.46;102350.38;4954736;28;114219;-71
2023/02/03 06:27:58;;;;;;;6.20;1.40;;;;;;;13.11;57.36;102341.50;4957506;28;124707;-71
2023/02/03 06:30:26;;;;;;;6.15;1.30;;;;;;;13.10;57.23;102347.75;4975061;28;123551;-72
2023/02/03 06:32:54;;;;;;;7.65;1.45;;;;;;;13.10;57.30;102350.41;4978718;28;113344;-71
2023/02/03 06:35:21;;;;;;;4.18;1.25;;;;;;;13.09;57.24;102343.34;4967339;28;114302;-72
2023/02/03 06:37:48;;;;;;;6.88;1.30;;;;;;;13.09;57.35;102356.63;4959989;28;124356;-71
2023/02/03 06:40:15;;;;;;;4.22;1.20;;;;;;;13.08;57.36;102370.88;4962028;28;124360;-71
2023/02/03 06:42:46;;;;;;;4.45;1.30;;;;;;;13.07;57.31;102379.75;4961043;28;116272;-71
2023/02/03 06:45:14;;;;;;;4.43;1.35;;;;;;;13.08;57.32;102381.50;4959720;28;114509;-71
2023/02/03 06:47:42;;;;;;;5.25;1.20;;;;;;;13.08;57.36;102386.84;4958345;28;124030;-72
2023/02/03 06:50:12;;;;;;;7.25;1.50;;;;;;;13.07;57.35;102387.75;4957262;28;124188;-71
2023/02/03 06:52:39;;;;;;;4.53;1.27;;;;;;;13.07;57.38;102372.63;4959126;28;114231;-72
2023/02/03 06:55:07;;;;;;;7.28;1.60;;;;;;;13.05;57.35;102367.41;4959077;28;113395;-72
2023/02/03 06:57:34;;;;;;;5.20;1.40;;;;;;;13.06;57.30;102378.91;4975565;28;124489;-71
2023/02/03 07:00:02;;;;;;;7.95;1.85;;;;;;;13.04;57.33;102381.59;4956300;28;124063;-72
2023/02/03 07:02:29;;;;;;;5.43;1.30;;;;;;;13.04;57.20;102381.59;4976772;28;113668;-72
2023/02/03 07:04:56;;;;;;;5.82;1.50;;;;;;;13.05;57.57;102398.41;4964622;28;114152;-71
2023/02/03 07:07:23;;;;;;;6.20;1.40;;;;;;;13.05;57.27;102412.59;4962723;28;123318;-72
2023/02/03 07:09:50;;;;;;;7.70;1.20;;;;;;;13.05;57.57;102415.28;4963429;28;123212;-72
2023/02/03 07:12:17;;;;;;;6.00;1.27;;;;;;;13.05;57.54;102399.31;4958435;28;114629;-72
2023/02/03 07:14:44;;;;;;;5.22;1.30;;;;;;;13.05;57.60;102404.63;4958800;28;114092;-72
2023/02/03 07:17:11;;;;;;;4.35;1.50;;;;;;;13.05;57.50;102414.38;4962484;28;124033;-72
2023/02/03 07:19:38;;;;;;;4.75;1.38;;;;;;;13.05;57.48;102407.28;4963075;28;123171;-72
2023/02/03 07:22:05;;;;;;;9.52;1.50;;;;;;;13.07;57.56;102385.06;4962689;28;114214;-72
2023/02/03 07:24:32;;;;;;;5.45;1.42;;;;;;;13.07;57.32;102395.72;4966541;28;114448;-72
2023/02/03 07:26:59;;;;;;;5.15;2.03;;;;;;;13.08;57.40;102392.16;4961361;28;123593;-72
2023/02/03 07:29:29;;;;;;;5.63;1.40;;;;;;;13.07;57.48;102393.91;4970453;28;124422;-71
2023/02/03 07:31:56;;;;;;;4.80;1.45;;;;;;;13.06;57.45;102384.22;4967097;28;115371;-72
2023/02/03 07:34:23;;;;;;;5.70;1.60;;;;;;;13.06;57.49;102392.19;4983276;28;114651;-72
2023/02/03 07:36:50;;;;;;;5.68;1.65;;;;;;;13.05;57.43;102394.00;4983274;28;123956;-69
2023/02/03 07:39:17;;;;;;;4.25;1.35;;;;;;;13.04;57.75;102392.22;4962000;28;123720;-69
2023/02/03 07:41:45;;;;;;;5.72;1.55;;;;;;;13.07;57.39;102411.69;4971903;28;113767;-70
2023/02/03 07:44:12;;;;;;;6.72;1.50;;;;;;;13.05;57.57;102393.09;4964086;28;113728;-71
2023/02/03 07:46:43;;;;;;;6.47;1.67;;;;;;;13.04;57.54;102413.50;4960994;28;123941;-71
2023/02/03 07:49:11;;;;;;;3.60;1.40;;;;;;;13.03;57.57;102427.75;4956245;28;124661;-71
2023/02/03 07:51:38;;;;;;;4.65;1.30;;;;;;;13.04;57.65;102429.47;4961764;28;114992;-70
2023/02/03 07:54:05;;;;;;;5.20;1.90;;;;;;;13.05;57.72;102431.22;4969538;28;113645;-70
2023/02/03 07:56:33;;;;;;;6.57;1.38;;;;;;;13.04;57.69;102418.84;4960380;28;123844;-70
2023/02/03 07:59:01;;;;;;;8.18;1.80;;;;;;;13.06;57.66;102426.78;4963412;28;122712;-71
2023/02/03 08:01:30;;;;;;;5.57;2.00;;;;;;;13.08;57.79;102424.06;4969592;28;114266;-71
2023/02/03 08:03:57;;;;;;;6.13;1.95;;;;;;;13.08;57.70;102434.72;4964830;28;113898;-71
2023/02/03 08:06:24;;;;;;;7.97;1.80;;;;;;;13.09;57.80;102421.38;4966152;28;123939;-70
2023/02/03 08:08:52;;;;;;;5.00;1.50;;;;;;;13.10;57.76;102427.56;4966431;28;123824;-70
2023/02/03 08:11:20;;;;;;;6.05;1.63;;;;;;;13.13;57.78;102427.44;4965821;28;114531;-71
2023/02/03 08:13:47;;;;;;;6.75;1.70;;;;;;;13.14;57.70;102439.84;4956553;28;113771;-70
2023/02/03 08:16:14;;;;;;;4.15;1.70;;;;;;;13.15;57.81;102438.94;4967086;28;124171;-70
2023/02/03 08:18:41;;;;;;;5.97;1.50;;;;;;;13.16;57.82;102440.66;4967570;28;124755;-71
2023/02/03 08:21:08;;;;;;;6.15;1.60;;;;;;;13.17;57.96;102434.44;4981145;28;114730;-70
2023/02/03 08:23:35;;;;;;;7.07;1.88;;;;;;;13.16;57.91;102444.19;4966601;28;114161;-71
2023/02/03 08:26:02;;;;;;;8.27;1.80;;;;;;;13.18;57.82;102460.97;4951685;28;122929;-69
2023/02/03 08:28:29;;;;;;;8.15;1.88;;;;;;;13.19;57.93;102451.22;4968541;28;123722;-71
2023/02/03 08:30:56;;;;;;;8.07;2.10;;;;;;;13.20;57.81;102460.94;4967721;28;113911;-70
2023/02/03 08:33:23;;;;;;;8.82;2.10;;;;;;;13.20;57.80;102460.94;4968448;28;114240;-71
2023/02/03 08:35:51;;;;;;;4.75;1.80;;;;;;;13.18;57.76;102453.00;4966380;28;124685;-70
2023/02/03 08:38:18;;;;;;;7.05;2.15;;;;;;;13.20;57.77;102460.94;4969291;28;123766;-70
2023/02/03 08:40:45;;;;;;;7.15;1.85;;;;;;;13.20;57.91;102464.50;4967765;28;114660;-71
2023/02/03 08:43:12;;;;;;;6.90;2.15;;;;;;;13.21;57.87;102465.34;4967161;28;113960;-71
2023/02/03 08:45:40;;;;;;;7.20;1.85;;;;;;;13.20;57.94;102479.56;4963426;28;124685;-70
2023/02/03 08:48:07;;;;;;;6.90;2.05;;;;;;;13.21;57.95;102484.84;4949267;28;123754;-71
2023/02/03 08:50:34;;;;;;;7.63;2.08;;;;;;;13.21;57.88;102468.00;4954260;28;113013;-71
2023/02/03 08:53:01;;;;;;;10.43;1.98;;;;;;;13.21;57.96;102462.69;4964625;28;114020;-70
2023/02/03 08:55:28;;;;;;;4.50;1.83;;;;;;;13.20;58.13;102456.50;4981936;28;123425;-70
2023/02/03 08:57:55;;;;;;;10.80;2.47;;;;;;;13.21;58.06;102462.69;4978719;28;123594;-70
2023/02/03 09:00:22;;;;;;;6.55;2.05;;;;;;;13.23;58.03;102471.50;4971670;28;114233;-70
2023/02/03 09:02:50;;;;;;;7.22;1.75;;;;;;;13.23;57.96;102467.03;4963339;28;114008;-70
2023/02/03 09:05:17;;;;;;;8.20;2.20;;;;;;;13.24;57.78;102462.56;4967074;28;123687;-71
2023/02/03 09:07:44;;;;;;;8.98;2.00;;;;;;;13.24;58.17;102467.91;4970824;28;124577;-71
2023/02/03 09:10:11;;;;;;;6.63;2.03;;;;;;;13.26;58.17;102471.41;4958122;28;115784;-71
2023/02/03 09:12:38;;;;;;;4.43;1.63;;;;;;;13.27;58.15;102478.47;4972605;28;115112;-71
2023/02/03 09:15:06;;;;;;;9.05;2.08;;;;;;;13.28;58.13;102469.56;4972470;28;124328;-70
2023/02/03 09:17:33;;;;;;;8.20;1.90;;;;;;;13.29;57.96;102476.63;4972233;28;124116;-70
2023/02/03 09:20:00;;;;;;;8.57;1.75;;;;;;;13.29;58.28;102476.63;4967493;28;114324;-71
2023/02/03 09:22:27;;;;;;;10.10;2.35;;;;;;;13.29;58.14;102478.41;4980754;28;114079;-70
2023/02/03 09:24:54;;;;;;;7.85;1.80;;;;;;;13.30;58.15;102494.38;4971199;28;124335;-70
2023/02/03 09:27:22;;;;;;;5.82;1.75;;;;;;;13.31;58.16;102490.78;4969061;28;123825;-71
2023/02/03 09:29:49;;;;;;;8.55;2.20;;;;;;;13.32;58.20;102503.19;4986086;28;114829;-71
2023/02/03 09:32:16;;;;;;;8.27;1.85;;;;;;;13.31;58.33;102501.44;4971987;28;113928;-71
2023/02/03 09:34:43;;;;;;;10.13;2.00;;;;;;;13.31;58.13;102501.44;4970246;28;125341;-71
2023/02/03 09:37:10;;;;;;;6.20;1.70;;;;;;;13.31;58.28;102501.44;4971317;28;124249;-71
2023/02/03 09:39:37;;;;;;;5.65;1.98;;;;;;;13.32;58.27;102508.50;4970563;28;114963;-71
2023/02/03 09:42:27;;;;;;;6.95;1.77;;;;;;;13.33;58.33;102510.22;4972197;28;114544;-71
2023/02/03 09:45:23;;;;;;;7.07;1.95;;;;;;;13.35;58.26;102497.75;4970786;28;123232;-71
2023/02/03 09:47:54;;;;;;;;;;;;;;;13.33;58.27;102493.41;4972051;28;123684;-71
2023/02/03 09:50:24;;;;;;;7.68;1.65;;;;;;;13.35;58.21;102492.44;4970404;28;113686;-71
2023/02/03 09:52:54;;;;;;;9.00;2.05;;;;;;;13.36;58.38;102496.84;4969445;28;113847;-71
2023/02/03 09:55:32;;;;;;;8.90;1.80;;;;;;;13.36;58.38;102483.53;4972812;28;124992;-70
2023/02/03 09:58:20;;;;;;;6.13;1.58;;;;;;;13.39;58.27;102494.09;4961182;28;123766;-70
2023/02/03 10:00:53;;;;;;;7.18;1.48;;;;;;;13.38;58.45;102489.69;4961486;28;115025;-71
2023/02/03 10:03:43;;;;;;;7.50;1.70;;;;;;;13.38;58.39;102481.69;4960911;28;115064;-71
2023/02/03 10:06:34;;;;;;;8.25;2.08;;;;;;;13.41;58.45;102492.25;4962565;28;124165;-71
2023/02/03 10:09:13;;;;;;;7.50;1.75;;;;;;;13.42;58.51;102488.66;4960943;28;123298;-70
2023/02/03 10:12:06;;;;;;;4.97;1.85;;;;;;;13.47;58.47;102506.28;4966548;28;114132;-71
2023/02/03 10:15:06;;;;;;;11.02;1.85;;;;;;;13.50;58.42;102503.53;4967290;28;113985;-71
2023/02/03 10:17:38;;;;;;;10.95;2.35;;;;;;;13.50;58.27;102508.84;4967755;28;124741;-71
2023/02/03 10:20:16;;;;;;;7.60;1.83;;;;;;;13.52;58.38;102515.88;4967332;28;124393;-71
2023/02/03 10:22:54;;;;;;;8.82;2.00;;;;;;;13.55;58.33;102510.47;4971924;28;114117;-71
2023/02/03 10:25:37;;;;;;;5.38;1.70;;;;;;;13.59;58.26;102521.88;4968274;28;114078;-71
2023/02/03 10:28:15;;;;;;;7.43;2.05;;;;;;;13.60;58.40;102518.31;4968280;28;124188;-71
2023/02/03 10:30:48;;;;;;;6.20;2.15;;;;;;;13.64;58.38;102519.97;4968975;28;123517;-71
2023/02/03 10:33:17;;;;;;;9.65;2.20;;;;;;;13.67;58.43;102501.22;4970714;28;114265;-71
2023/02/03 10:35:56;;;;;;;8.27;2.00;;;;;;;13.70;58.35;102503.78;4969872;28;113783;-71
2023/02/03 10:38:49;;;;;;;9.18;2.50;;;;;;;13.72;58.37;102507.28;4968964;28;123965;-71
2023/02/03 10:41:19;;;;;;;7.47;2.28;;;;;;;13.76;58.41;102503.59;4981685;28;123789;-72
2023/02/03 10:43:50;;;;;;;11.02;2.10;;;;;;;13.77;58.43;102505.34;4970623;28;112544;-71
2023/02/03 10:46:29;;;;;;;8.73;2.15;;;;;;;13.78;58.38;102501.75;4956270;28;113897;-72
2023/02/03 10:48:57;;;;;;;7.90;2.08;;;;;;;13.81;58.20;102499.00;4985655;28;124937;-71
2023/02/03 10:51:29;;;;;;;8.07;1.90;;;;;;;13.82;58.32;102495.44;4969921;28;124188;-71
2023/02/03 10:53:57;;;;;;;6.47;1.98;;;;;;;13.83;58.11;102505.13;4954752;28;115381;-69
2023/02/03 10:56:38;;;;;;;6.47;1.88;;;;;;;13.86;58.26;102508.63;4970420;28;114677;-69
2023/02/03 10:59:07;;;;;;;8.43;2.00;;;;;;;13.85;58.17;102513.09;4985233;28;123977;-69
2023/02/03 11:01:43;;;;;;;10.48;2.10;;;;;;;13.87;58.13;102513.03;4971022;28;123950;-69
2023/02/03 11:04:40;;;;;;;7.30;1.90;;;;;;;13.89;58.25;102519.19;4967782;28;114138;-69
2023/02/03 11:07:24;;;;;;;11.20;2.40;;;;;;;13.91;58.28;102530.66;4961225;28;113964;-69
2023/02/03 11:09:51;;;;;;;9.75;2.25;;;;;;;13.94;58.18;102538.56;4969461;28;123993;-70
2023/02/03 11:12:19;;;;;;;11.10;2.33;;;;;;;13.95;58.14;102540.28;4971324;28;124474;-70
2023/02/03 11:14:49;;;;;;;9.65;2.53;;;;;;;13.96;58.23;102526.06;4970370;28;114761;-70
2023/02/03 11:17:21;;;;;;;5.68;1.80;;;;;;;13.97;58.07;102522.47;4961831;28;112985;-70
2023/02/03 11:19:53;;;;;;;4.97;1.75;;;;;;;13.97;58.24;102522.47;4964536;28;98612;-70
2023/02/03 11:22:30;;;;;;;8.27;2.03;;;;;;;13.98;58.14;102513.56;4963616;28;123788;-70
2023/02/03 11:24:58;;;;;;;10.00;2.05;;;;;;;14.01;58.06;102524.09;4969968;28;119785;-70
2023/02/03 11:27:29;;;;;;;6.95;1.70;;;;;;;14.00;57.88;102528.56;4960530;28;113151;-70
2023/02/03 11:30:22;;;;;;;7.07;1.90;;;;;;;14.01;58.09;102529.44;4972216;28;123751;-70
2023/02/03 11:32:50;;;;;;;4.97;1.92;;;;;;;14.03;57.97;102527.59;4982607;28;124173;-70
2023/02/03 11:35:21;;;;;;;8.63;1.85;;;;;;;14.05;58.04;102528.41;4985036;28;114221;-71
2023/02/03 11:37:52;;;;;;;5.28;1.90;;;;;;;14.04;58.05;102534.69;4973066;28;112259;-70